sensor_id;sensor_type;location;lat;lon;timestamp;pressure;altitude;pressure_sealevel;temperature;humidity
23166;BME280;11751;42.700;24.170;2022-08-20T00:00:07;93704.72;;;21.51;nan
23166;BME280;11751;42.700;24.170;2022-08-20T00:02:42;93704.25;;;21.41;nan
23166;BME280;11751;42.700;24.170;2022-08-20T00:05:08;93698.25;;;21.35;nan
23166;BME280;11751;42.700;24.170;2022-08-20T00:07:34;93700.91;;;21.31;nan
23166;BME280;11751;42.700;24.170;2022-08-20T00:09:59;93699.84;;;21.38;nan
23166;BME280;11751;42.700;24.170;2022-08-20T00:12:25;93706.47;;;21.43;nan
23166;BME280;11751;42.700;24.170;2022-08-20T00:14:50;93703.84;;;21.33;nan
23166;BME280;11751;42.700;24.170;2022-08-20T00:17:15;93713.56;;;21.28;nan
23166;BME280;11751;42.700;24.170;2022-08-20T00:19:41;93699.84;;;21.38;nan
23166;BME280;11751;42.700;24.170;2022-08-20T00:22:06;93709.47;;;21.60;nan
23166;BME280;11751;42.700;24.170;2022-08-20T00:24:32;93701.13;;;21.64;nan
23166;BME280;11751;42.700;24.170;2022-08-20T00:26:59;93709.22;;;21.69;nan
23166;BME280;11751;42.700;24.170;2022-08-20T00:29:25;93711.00;;;21.76;nan
23166;BME280;11751;42.700;24.170;2022-08-20T00:31:50;93711.00;;;21.76;nan
23166;BME280;11751;42.700;24.170;2022-08-20T00:34:16;93703.00;;;21.73;nan
23166;BME280;11751;42.700;24.170;2022-08-20T00:36:42;93703.19;;;21.77;nan
23166;BME280;11751;42.700;24.170;2022-08-20T00:39:07;93688.34;;;21.65;nan
23166;BME280;11751;42.700;24.170;2022-08-20T00:41:33;93681.22;;;21.51;nan
23166;BME280;11751;42.700;24.170;2022-08-20T00:44:14;93677.97;;;21.43;nan
23166;BME280;11751;42.700;24.170;2022-08-20T00:46:41;93676.56;;;21.28;nan
23166;BME280;11751;42.700;24.170;2022-08-20T00:49:14;93672.13;;;21.25;nan
23166;BME280;11751;42.700;24.170;2022-08-20T00:51:56;93674.22;;;21.25;nan
23166;BME280;11751;42.700;24.170;2022-08-20T00:54:38;93669.63;;;21.18;nan
23166;BME280;11751;42.700;24.170;2022-08-20T00:57:34;93670.66;;;21.24;nan
23166;BME280;11751;42.700;24.170;2022-08-20T01:00:00;93656.69;;;21.30;nan
23166;BME280;11751;42.700;24.170;2022-08-20T01:02:28;93672.66;;;21.22;nan
23166;BME280;11751;42.700;24.170;2022-08-20T01:04:55;93667.16;;;21.26;nan
23166;BME280;11751;42.700;24.170;2022-08-20T01:07:25;93666.31;;;21.23;nan
23166;BME280;11751;42.700;24.170;2022-08-20T01:09:57;93661.38;;;21.24;nan
23166;BME280;11751;42.700;24.170;2022-08-20T01:12:23;93661.88;;;21.34;nan
23166;BME280;11751;42.700;24.170;2022-08-20T01:14:49;93661.63;;;21.43;nan
23166;BME280;11751;42.700;24.170;2022-08-20T01:17:20;93674.69;;;21.48;nan
23166;BME280;11751;42.700;24.170;2022-08-20T01:19:51;93674.75;;;21.50;nan
23166;BME280;11751;42.700;24.170;2022-08-20T01:22:34;93679.78;;;21.36;nan
23166;BME280;11751;42.700;24.170;2022-08-20T01:28:04;93667.94;;;21.13;nan
23166;BME280;11751;42.700;24.170;2022-08-20T01:30:31;93668.34;;;21.21;nan
23166;BME280;11751;42.700;24.170;2022-08-20T01:32:57;93665.72;;;21.11;nan
23166;BME280;11751;42.700;24.170;2022-08-20T01:35:24;93671.03;;;21.03;nan
23166;BME280;11751;42.700;24.170;2022-08-20T01:37:50;93671.22;;;21.07;nan
23166;BME280;11751;42.700;24.170;2022-08-20T01:40:26;93666.16;;;21.06;nan
23166;BME280;11751;42.700;24.170;2022-08-20T01:42:56;93672.09;;;20.96;nan
23166;BME280;11751;42.700;24.170;2022-08-20T01:45:21;93671.50;;;20.84;nan
23166;BME280;11751;42.700;24.170;2022-08-20T01:47:47;93665.50;;;20.78;nan
23166;BME280;11751;42.700;24.170;2022-08-20T01:50:20;93661.56;;;20.72;nan
23166;BME280;11751;42.700;24.170;2022-08-20T01:52:51;93660.53;;;20.65;nan
23166;BME280;11751;42.700;24.170;2022-08-20T01:55:19;93660.56;;;20.39;nan
23166;BME280;11751;42.700;24.170;2022-08-20T01:57:45;93651.59;;;20.44;nan
23166;BME280;11751;42.700;24.170;2022-08-20T02:00:14;93661.59;;;20.59;nan
23166;BME280;11751;42.700;24.170;2022-08-20T02:02:40;93651.69;;;20.60;nan
23166;BME280;11751;42.700;24.170;2022-08-20T02:05:06;93653.25;;;20.63;nan
23166;BME280;11751;42.700;24.170;2022-08-20T02:07:32;93655.16;;;20.58;nan
23166;BME280;11751;42.700;24.170;2022-08-20T02:09:59;93657.38;;;20.60;nan
23166;BME280;11751;42.700;24.170;2022-08-20T02:12:25;93654.44;;;20.58;nan
23166;BME280;11751;42.700;24.170;2022-08-20T02:14:52;93655.16;;;20.58;nan
23166;BME280;11751;42.700;24.170;2022-08-20T02:17:22;93651.69;;;20.60;nan
23166;BME280;11751;42.700;24.170;2022-08-20T02:19:52;93646.84;;;20.62;nan
23166;BME280;11751;42.700;24.170;2022-08-20T02:24:57;93649.28;;;20.54;nan
23166;BME280;11751;42.700;24.170;2022-08-20T02:27:23;93644.41;;;20.57;nan
23166;BME280;11751;42.700;24.170;2022-08-20T02:29:50;93654.53;;;20.60;nan
23166;BME280;11751;42.700;24.170;2022-08-20T02:32:17;93646.72;;;20.60;nan
23166;BME280;11751;42.700;24.170;2022-08-20T02:34:43;93653.69;;;20.57;nan
23166;BME280;11751;42.700;24.170;2022-08-20T02:37:09;93651.69;;;20.60;nan
23166;BME280;11751;42.700;24.170;2022-08-20T02:39:35;93637.03;;;20.52;nan
23166;BME280;11751;42.700;24.170;2022-08-20T02:42:00;93641.78;;;20.34;nan
23166;BME280;11751;42.700;24.170;2022-08-20T02:44:29;93648.00;;;20.30;nan
23166;BME280;11751;42.700;24.170;2022-08-20T02:46:55;93634.22;;;19.98;nan
23166;BME280;11751;42.700;24.170;2022-08-20T02:49:21;93644.41;;;20.03;nan
23166;BME280;11751;42.700;24.170;2022-08-20T02:51:46;93638.72;;;20.03;nan
23166;BME280;11751;42.700;24.170;2022-08-20T02:54:12;93626.69;;;19.91;nan
23166;BME280;11751;42.700;24.170;2022-08-20T02:56:38;93637.53;;;19.81;nan
23166;BME280;11751;42.700;24.170;2022-08-20T02:59:04;93631.63;;;19.90;nan
23166;BME280;11751;42.700;24.170;2022-08-20T03:01:29;93637.59;;;20.08;nan
23166;BME280;11751;42.700;24.170;2022-08-20T03:03:56;93630.66;;;20.11;nan
23166;BME280;11751;42.700;24.170;2022-08-20T03:06:25;93639.91;;;20.25;nan
23166;BME280;11751;42.700;24.170;2022-08-20T03:08:51;93635.91;;;20.30;nan
23166;BME280;11751;42.700;24.170;2022-08-20T03:11:17;93634.09;;;20.23;nan
23166;BME280;11751;42.700;24.170;2022-08-20T03:13:43;93642.56;;;20.21;nan
23166;BME280;11751;42.700;24.170;2022-08-20T03:16:09;93646.66;;;20.18;nan
23166;BME280;11751;42.700;24.170;2022-08-20T03:18:37;93641.78;;;20.07;nan
23166;BME280;11751;42.700;24.170;2022-08-20T03:21:04;93636.94;;;19.96;nan
23166;BME280;11751;42.700;24.170;2022-08-20T03:23:31;93636.72;;;19.92;nan
23166;BME280;11751;42.700;24.170;2022-08-20T03:25:57;93644.09;;;19.97;nan
23166;BME280;11751;42.700;24.170;2022-08-20T03:28:23;93644.09;;;19.97;nan
23166;BME280;11751;42.700;24.170;2022-08-20T03:30:48;93642.63;;;19.96;nan
23166;BME280;11751;42.700;24.170;2022-08-20T03:33:16;93642.16;;;19.88;nan
23166;BME280;11751;42.700;24.170;2022-08-20T03:35:41;93642.06;;;19.86;nan
23166;BME280;11751;42.700;24.170;2022-08-20T03:38:09;93648.69;;;19.90;nan
23166;BME280;11751;42.700;24.170;2022-08-20T03:40:36;93653.03;;;20.05;nan
23166;BME280;11751;42.700;24.170;2022-08-20T03:43:03;93654.84;;;20.12;nan
23166;BME280;11751;42.700;24.170;2022-08-20T03:45:28;93643.69;;;20.16;nan
23166;BME280;11751;42.700;24.170;2022-08-20T03:47:54;93653.16;;;20.20;nan
23166;BME280;11751;42.700;24.170;2022-08-20T03:50:25;93653.38;;;20.11;nan
23166;BME280;11751;42.700;24.170;2022-08-20T03:52:51;93661.91;;;20.11;nan
23166;BME280;11751;42.700;24.170;2022-08-20T03:55:18;93650.00;;;20.14;nan
23166;BME280;11751;42.700;24.170;2022-08-20T03:57:46;93636.94;;;20.23;nan
23166;BME280;11751;42.700;24.170;2022-08-20T04:00:14;93647.06;;;20.26;nan
23166;BME280;11751;42.700;24.170;2022-08-20T04:02:40;93641.69;;;20.32;nan
23166;BME280;11751;42.700;24.170;2022-08-20T04:05:06;93639.16;;;20.38;nan
23166;BME280;11751;42.700;24.170;2022-08-20T04:07:32;93644.97;;;20.40;nan
23166;BME280;11751;42.700;24.170;2022-08-20T04:09:57;93652.72;;;20.53;nan
23166;BME280;11751;42.700;24.170;2022-08-20T04:12:23;93652.72;;;20.53;nan
23166;BME280;11751;42.700;24.170;2022-08-20T04:14:50;93650.00;;;20.55;nan
23166;BME280;11751;42.700;24.170;2022-08-20T04:17:18;93641.78;;;20.61;nan
23166;BME280;11751;42.700;24.170;2022-08-20T04:19:44;93651.69;;;20.60;nan
23166;BME280;11751;42.700;24.170;2022-08-20T04:22:10;93650.72;;;20.68;nan
23166;BME280;11751;42.700;24.170;2022-08-20T04:24:38;93648.06;;;20.72;nan
23166;BME280;11751;42.700;24.170;2022-08-20T04:27:04;93649.88;;;20.93;nan
23166;BME280;11751;42.700;24.170;2022-08-20T04:29:30;93655.88;;;20.85;nan
23166;BME280;11751;42.700;24.170;2022-08-20T04:31:57;93655.22;;;21.00;nan
23166;BME280;11751;42.700;24.170;2022-08-20T04:34:22;93655.63;;;21.08;nan
23166;BME280;11751;42.700;24.170;2022-08-20T04:36:48;93663.78;;;21.29;nan
23166;BME280;11751;42.700;24.170;2022-08-20T04:39:14;93658.38;;;21.35;nan
23166;BME280;11751;42.700;24.170;2022-08-20T04:41:40;93656.41;;;21.53;nan
23166;BME280;11751;42.700;24.170;2022-08-20T04:44:06;93650.09;;;21.70;nan
23166;BME280;11751;42.700;24.170;2022-08-20T04:46:32;93644.41;;;21.70;nan
23166;BME280;11751;42.700;24.170;2022-08-20T04:48:57;93644.63;;;21.89;nan
23166;BME280;11751;42.700;24.170;2022-08-20T04:51:24;93650.16;;;22.01;nan
23166;BME280;11751;42.700;24.170;2022-08-20T04:53:51;93640.97;;;22.02;nan
23166;BME280;11751;42.700;24.170;2022-08-20T04:56:17;93637.47;;;22.19;nan
23166;BME280;11751;42.700;24.170;2022-08-20T04:58:47;93641.16;;;22.37;nan
23166;BME280;11751;42.700;24.170;2022-08-20T05:01:15;93647.44;;;22.66;nan
23166;BME280;11751;42.700;24.170;2022-08-20T05:03:41;93646.44;;;23.08;nan
23166;BME280;11751;42.700;24.170;2022-08-20T05:06:09;93639.69;;;23.52;nan
23166;BME280;11751;42.700;24.170;2022-08-20T05:08:36;93645.63;;;23.93;nan
23166;BME280;11751;42.700;24.170;2022-08-20T05:11:03;93627.19;;;24.34;nan
23166;BME280;11751;42.700;24.170;2022-08-20T05:13:29;93629.72;;;24.83;nan
23166;BME280;11751;42.700;24.170;2022-08-20T05:15:55;93636.00;;;25.18;nan
23166;BME280;11751;42.700;24.170;2022-08-20T05:18:23;93638.06;;;25.37;nan
23166;BME280;11751;42.700;24.170;2022-08-20T05:20:51;93631.94;;;25.68;nan
23166;BME280;11751;42.700;24.170;2022-08-20T05:23:18;93641.25;;;25.90;nan
23166;BME280;11751;42.700;24.170;2022-08-20T05:25:46;93635.41;;;25.86;nan
23166;BME280;11751;42.700;24.170;2022-08-20T05:28:22;93635.47;;;25.88;nan
23166;BME280;11751;42.700;24.170;2022-08-20T05:30:52;93641.38;;;25.94;nan
23166;BME280;11751;42.700;24.170;2022-08-20T05:33:20;93632.19;;;25.76;nan
23166;BME280;11751;42.700;24.170;2022-08-20T05:35:47;93638.97;;;25.86;nan
23166;BME280;11751;42.700;24.170;2022-08-20T05:38:16;93647.28;;;25.99;nan
23166;BME280;11751;42.700;24.170;2022-08-20T05:40:44;93645.78;;;25.97;nan
23166;BME280;11751;42.700;24.170;2022-08-20T05:43:10;93646.50;;;25.97;nan
23166;BME280;11751;42.700;24.170;2022-08-20T05:45:37;93645.41;;;25.85;nan
23166;BME280;11751;42.700;24.170;2022-08-20T05:48:29;93641.88;;;26.09;nan
23166;BME280;11751;42.700;24.170;2022-08-20T05:50:55;93634.91;;;25.93;nan
23166;BME280;11751;42.700;24.170;2022-08-20T05:53:22;93640.53;;;26.12;nan
23166;BME280;11751;42.700;24.170;2022-08-20T05:55:48;93632.47;;;26.30;nan
23166;BME280;11751;42.700;24.170;2022-08-20T05:58:24;93626.72;;;26.54;nan
23166;BME280;11751;42.700;24.170;2022-08-20T06:00:51;93629.44;;;26.73;nan
23166;BME280;11751;42.700;24.170;2022-08-20T06:03:17;93624.69;;;26.83;nan
23166;BME280;11751;42.700;24.170;2022-08-20T06:06:02;93628.91;;;27.04;nan
23166;BME280;11751;42.700;24.170;2022-08-20T06:08:29;93631.47;;;27.19;nan
23166;BME280;11751;42.700;24.170;2022-08-20T06:10:55;93623.50;;;27.18;nan
23166;BME280;11751;42.700;24.170;2022-08-20T06:13:20;93626.66;;;27.28;nan
23166;BME280;11751;42.700;24.170;2022-08-20T06:15:46;93621.22;;;27.40;nan
23166;BME280;11751;42.700;24.170;2022-08-20T06:18:11;93625.16;;;27.25;nan
23166;BME280;11751;42.700;24.170;2022-08-20T06:20:37;93624.63;;;27.05;nan
23166;BME280;11751;42.700;24.170;2022-08-20T06:23:03;93607.78;;;27.21;nan
23166;BME280;11751;42.700;24.170;2022-08-20T06:25:30;93608.16;;;27.35;nan
23166;BME280;11751;42.700;24.170;2022-08-20T06:27:56;93610.16;;;27.28;nan
23166;BME280;11751;42.700;24.170;2022-08-20T06:30:22;93596.34;;;27.23;nan
23166;BME280;11751;42.700;24.170;2022-08-20T06:32:48;93605.44;;;27.41;nan
23166;BME280;11751;42.700;24.170;2022-08-20T06:35:15;93611.53;;;27.55;nan
23166;BME280;11751;42.700;24.170;2022-08-20T06:37:40;93605.94;;;27.61;nan
23166;BME280;11751;42.700;24.170;2022-08-20T06:40:08;93604.88;;;27.75;nan
23166;BME280;11751;42.700;24.170;2022-08-20T06:42:34;93601.63;;;27.89;nan
23166;BME280;11751;42.700;24.170;2022-08-20T06:45:00;93606.72;;;27.92;nan
23166;BME280;11751;42.700;24.170;2022-08-20T06:47:29;93614.50;;;28.17;nan
23166;BME280;11751;42.700;24.170;2022-08-20T06:49:55;93606.09;;;28.27;nan
23166;BME280;11751;42.700;24.170;2022-08-20T06:52:22;93606.63;;;28.51;nan
23166;BME280;11751;42.700;24.170;2022-08-20T06:54:47;93604.22;;;28.73;nan
23166;BME280;11751;42.700;24.170;2022-08-20T06:57:13;93607.28;;;28.81;nan
23166;BME280;11751;42.700;24.170;2022-08-20T06:59:39;93608.41;;;29.01;nan
23166;BME280;11751;42.700;24.170;2022-08-20T07:02:06;93606.81;;;29.32;nan
23166;BME280;11751;42.700;24.170;2022-08-20T07:04:32;93603.56;;;29.51;nan
23166;BME280;11751;42.700;24.170;2022-08-20T07:06:58;93611.28;;;29.80;nan
23166;BME280;11751;42.700;24.170;2022-08-20T07:09:25;93609.56;;;30.06;nan
23166;BME280;11751;42.700;24.170;2022-08-20T07:11:51;93601.91;;;30.27;nan
23166;BME280;11751;42.700;24.170;2022-08-20T07:14:17;93601.16;;;30.24;nan
23166;BME280;11751;42.700;24.170;2022-08-20T07:16:43;93600.69;;;30.42;nan
23166;BME280;11751;42.700;24.170;2022-08-20T07:19:11;93591.63;;;30.65;nan
23166;BME280;11751;42.700;24.170;2022-08-20T07:21:37;93591.88;;;30.85;nan
23166;BME280;11751;42.700;24.170;2022-08-20T07:24:02;93594.47;;;30.59;nan
23166;BME280;11751;42.700;24.170;2022-08-20T07:26:28;93581.69;;;30.78;nan
23166;BME280;11751;42.700;24.170;2022-08-20T07:28:54;93585.66;;;30.49;nan
23166;BME280;11751;42.700;24.170;2022-08-20T07:31:19;93591.53;;;30.57;nan
23166;BME280;11751;42.700;24.170;2022-08-20T07:34:04;93586.56;;;30.65;nan
23166;BME280;11751;42.700;24.170;2022-08-20T07:36:30;93591.56;;;30.61;nan
23166;BME280;11751;42.700;24.170;2022-08-20T07:38:56;93590.44;;;30.84;nan
23166;BME280;11751;42.700;24.170;2022-08-20T07:41:22;93588.03;;;30.66;nan
23166;BME280;11751;42.700;24.170;2022-08-20T07:43:48;93582.91;;;30.59;nan
23166;BME280;11751;42.700;24.170;2022-08-20T07:46:15;93578.41;;;30.48;nan
23166;BME280;11751;42.700;24.170;2022-08-20T07:48:44;93581.47;;;30.62;nan
23166;BME280;11751;42.700;24.170;2022-08-20T07:51:12;93578.28;;;30.97;nan
23166;BME280;11751;42.700;24.170;2022-08-20T07:53:39;93569.00;;;31.05;nan
23166;BME280;11751;42.700;24.170;2022-08-20T07:56:09;93576.38;;;31.20;nan
23166;BME280;11751;42.700;24.170;2022-08-20T07:58:35;93570.19;;;31.49;nan
23166;BME280;11751;42.700;24.170;2022-08-20T08:01:03;93566.44;;;31.34;nan
23166;BME280;11751;42.700;24.170;2022-08-20T08:03:29;93557.78;;;31.40;nan
23166;BME280;11751;42.700;24.170;2022-08-20T08:05:56;93561.22;;;31.23;nan
23166;BME280;11751;42.700;24.170;2022-08-20T08:08:24;93553.34;;;31.30;nan
23166;BME280;11751;42.700;24.170;2022-08-20T08:10:55;93553.44;;;31.37;nan
23166;BME280;11751;42.700;24.170;2022-08-20T08:13:22;93561.22;;;31.19;nan
23166;BME280;11751;42.700;24.170;2022-08-20T08:15:52;93545.41;;;31.30;nan
23166;BME280;11751;42.700;24.170;2022-08-20T08:18:23;93550.56;;;31.37;nan
23166;BME280;11751;42.700;24.170;2022-08-20T08:20:50;93552.19;;;31.56;nan
23166;BME280;11751;42.700;24.170;2022-08-20T08:23:21;93542.09;;;31.61;nan
23166;BME280;11751;42.700;24.170;2022-08-20T08:25:48;93554.56;;;31.82;nan
23166;BME280;11751;42.700;24.170;2022-08-20T08:28:17;93535.34;;;32.24;nan
23166;BME280;11751;42.700;24.170;2022-08-20T08:30:45;93539.69;;;32.27;nan
23166;BME280;11751;42.700;24.170;2022-08-20T08:33:22;93530.25;;;32.22;nan
23166;BME280;11751;42.700;24.170;2022-08-20T08:35:59;93529.50;;;32.20;nan
23166;BME280;11751;42.700;24.170;2022-08-20T08:38:28;93521.59;;;32.32;nan
23166;BME280;11751;42.700;24.170;2022-08-20T08:40:55;93534.88;;;32.69;nan
23166;BME280;11751;42.700;24.170;2022-08-20T08:43:23;93534.75;;;32.51;nan
23166;BME280;11751;42.700;24.170;2022-08-20T08:45:59;93529.69;;;32.58;nan
23166;BME280;11751;42.700;24.170;2022-08-20T08:48:37;93530.53;;;32.76;nan
23166;BME280;11751;42.700;24.170;2022-08-20T08:51:05;93521.91;;;33.00;nan
23166;BME280;11751;42.700;24.170;2022-08-20T08:53:39;93526.97;;;32.96;nan
23166;BME280;11751;42.700;24.170;2022-08-20T08:56:07;93516.84;;;33.07;nan
23166;BME280;11751;42.700;24.170;2022-08-20T08:58:33;93516.94;;;33.48;nan
23166;BME280;11751;42.700;24.170;2022-08-20T09:01:19;93516.22;;;34.05;nan
23166;BME280;11751;42.700;24.170;2022-08-20T09:03:48;93517.69;;;34.26;nan
23166;BME280;11751;42.700;24.170;2022-08-20T09:06:19;93519.13;;;34.23;nan
23166;BME280;11751;42.700;24.170;2022-08-20T09:08:51;93515.53;;;33.77;nan
23166;BME280;11751;42.700;24.170;2022-08-20T09:11:20;93513.31;;;33.48;nan
23166;BME280;11751;42.700;24.170;2022-08-20T09:13:46;93520.59;;;33.61;nan
23166;BME280;11751;42.700;24.170;2022-08-20T09:16:12;93515.50;;;33.63;nan
23166;BME280;11751;42.700;24.170;2022-08-20T09:18:38;93523.50;;;33.91;nan
23166;BME280;11751;42.700;24.170;2022-08-20T09:21:05;93511.84;;;34.18;nan
23166;BME280;11751;42.700;24.170;2022-08-20T09:23:31;93515.44;;;34.45;nan
23166;BME280;11751;42.700;24.170;2022-08-20T09:25:57;93509.69;;;33.93;nan
23166;BME280;11751;42.700;24.170;2022-08-20T09:28:22;93509.66;;;34.29;nan
23166;BME280;11751;42.700;24.170;2022-08-20T09:30:48;93516.22;;;34.17;nan
23166;BME280;11751;42.700;24.170;2022-08-20T09:33:13;93515.50;;;34.15;nan
23166;BME280;11751;42.700;24.170;2022-08-20T09:35:39;93514.06;;;34.00;nan
23166;BME280;11751;42.700;24.170;2022-08-20T09:38:05;93503.88;;;33.73;nan
23166;BME280;11751;42.700;24.170;2022-08-20T09:40:32;93505.31;;;33.22;nan
23166;BME280;11751;42.700;24.170;2022-08-20T09:42:57;93506.63;;;32.88;nan
23166;BME280;11751;42.700;24.170;2022-08-20T09:45:23;93508.19;;;33.16;nan
23166;BME280;11751;42.700;24.170;2022-08-20T09:47:48;93506.75;;;33.19;nan
23166;BME280;11751;42.700;24.170;2022-08-20T09:50:14;93501.69;;;33.36;nan
23166;BME280;11751;42.700;24.170;2022-08-20T09:52:50;93506.78;;;33.39;nan
23166;BME280;11751;42.700;24.170;2022-08-20T09:55:40;93506.78;;;33.33;nan
23166;BME280;11751;42.700;24.170;2022-08-20T10:01:06;93501.69;;;33.44;nan
23166;BME280;11751;42.700;24.170;2022-08-20T10:03:32;93511.03;;;33.09;nan
23166;BME280;11751;42.700;24.170;2022-08-20T10:05:58;93508.19;;;33.11;nan
23166;BME280;11751;42.700;24.170;2022-08-20T10:08:24;93499.50;;;33.22;nan
23166;BME280;11751;42.700;24.170;2022-08-20T10:10:49;93504.50;;;32.98;nan
23166;BME280;11751;42.700;24.170;2022-08-20T10:13:15;93493.69;;;33.18;nan
23166;BME280;11751;42.700;24.170;2022-08-20T10:15:40;93502.44;;;33.68;nan
23166;BME280;11751;42.700;24.170;2022-08-20T10:18:06;93495.19;;;33.89;nan
23166;BME280;11751;42.700;24.170;2022-08-20T10:20:32;93464.59;;;32.89;nan
23166;BME280;11751;42.700;24.170;2022-08-20T10:22:59;93485.69;;;33.21;nan
23166;BME280;11751;42.700;24.170;2022-08-20T10:25:24;93494.44;;;33.55;nan
23166;BME280;11751;42.700;24.170;2022-08-20T10:27:50;93493.72;;;33.86;nan
23166;BME280;11751;42.700;24.170;2022-08-20T10:30:15;93493.72;;;33.94;nan
23166;BME280;11751;42.700;24.170;2022-08-20T10:32:40;93486.44;;;33.93;nan
23166;BME280;11751;42.700;24.170;2022-08-20T10:35:07;93483.59;;;33.71;nan
23166;BME280;11751;42.700;24.170;2022-08-20T10:37:34;93485.72;;;33.93;nan
23166;BME280;11751;42.700;24.170;2022-08-20T10:40:00;93467.56;;;33.84;nan
23166;BME280;11751;42.700;24.170;2022-08-20T10:42:26;93476.25;;;34.06;nan
23166;BME280;11751;42.700;24.170;2022-08-20T10:44:51;93473.34;;;34.04;nan
23166;BME280;11751;42.700;24.170;2022-08-20T10:47:25;93475.53;;;34.23;nan
23166;BME280;11751;42.700;24.170;2022-08-20T10:49:52;93470.34;;;34.46;nan
23166;BME280;11751;42.700;24.170;2022-08-20T10:52:19;93470.38;;;34.40;nan
23166;BME280;11751;42.700;24.170;2022-08-20T10:54:45;93463.13;;;34.37;nan
23166;BME280;11751;42.700;24.170;2022-08-20T10:57:22;93468.91;;;34.43;nan
23166;BME280;11751;42.700;24.170;2022-08-20T10:59:50;93465.94;;;34.67;nan
23166;BME280;11751;42.700;24.170;2022-08-20T11:02:16;93460.13;;;34.65;nan
23166;BME280;11751;42.700;24.170;2022-08-20T11:04:42;93455.94;;;34.00;nan
23166;BME280;11751;42.700;24.170;2022-08-20T11:09:42;93447.16;;;34.24;nan
23166;BME280;11751;42.700;24.170;2022-08-20T11:12:08;93453.03;;;33.94;nan
23166;BME280;11751;42.700;24.170;2022-08-20T11:14:33;93441.44;;;33.78;nan
23166;BME280;11751;42.700;24.170;2022-08-20T11:17:00;93438.53;;;33.76;nan
23166;BME280;11751;42.700;24.170;2022-08-20T11:19:26;93437.09;;;33.77;nan
23166;BME280;11751;42.700;24.170;2022-08-20T11:21:52;93437.09;;;33.67;nan
23166;BME280;11751;42.700;24.170;2022-08-20T11:24:17;93440.00;;;33.65;nan
23166;BME280;11751;42.700;24.170;2022-08-20T11:26:45;93441.47;;;33.68;nan
23166;BME280;11751;42.700;24.170;2022-08-20T11:29:11;93431.31;;;33.59;nan
23166;BME280;11751;42.700;24.170;2022-08-20T11:31:37;93433.47;;;33.57;nan
23166;BME280;11751;42.700;24.170;2022-08-20T11:34:02;93437.81;;;33.84;nan
23166;BME280;11751;42.700;24.170;2022-08-20T11:36:28;93439.22;;;34.12;nan
23166;BME280;11751;42.700;24.170;2022-08-20T11:38:54;93428.19;;;34.45;nan
23166;BME280;11751;42.700;24.170;2022-08-20T11:41:19;93425.38;;;34.27;nan
23166;BME280;11751;42.700;24.170;2022-08-20T11:43:45;93421.75;;;34.24;nan
23166;BME280;11751;42.700;24.170;2022-08-20T11:46:10;93423.91;;;34.30;nan
23166;BME280;11751;42.700;24.170;2022-08-20T11:48:36;93421.72;;;34.32;nan
23166;BME280;11751;42.700;24.170;2022-08-20T11:51:01;93413.84;;;33.91;nan
23166;BME280;11751;42.700;24.170;2022-08-20T11:53:26;93413.81;;;33.93;nan
23166;BME280;11751;42.700;24.170;2022-08-20T11:55:52;93413.78;;;34.05;nan
23166;BME280;11751;42.700;24.170;2022-08-20T11:58:18;93415.22;;;34.04;nan
23166;BME280;11751;42.700;24.170;2022-08-20T12:00:43;93413.09;;;33.97;nan
23166;BME280;11751;42.700;24.170;2022-08-20T12:03:09;93400.00;;;34.09;nan
23166;BME280;11751;42.700;24.170;2022-08-20T12:05:40;93407.97;;;34.21;nan
23166;BME280;11751;42.700;24.170;2022-08-20T12:08:06;93396.25;;;34.35;nan
23166;BME280;11751;42.700;24.170;2022-08-20T12:10:33;93400.56;;;34.42;nan
23166;BME280;11751;42.700;24.170;2022-08-20T12:12:58;93395.44;;;34.50;nan
23166;BME280;11751;42.700;24.170;2022-08-20T12:15:25;93394.72;;;34.52;nan
23166;BME280;11751;42.700;24.170;2022-08-20T12:17:51;93403.34;;;34.72;nan
23166;BME280;11751;42.700;24.170;2022-08-20T12:20:17;93398.91;;;34.89;nan
23166;BME280;11751;42.700;24.170;2022-08-20T12:22:42;93397.53;;;34.74;nan
23166;BME280;11751;42.700;24.170;2022-08-20T12:25:09;93390.19;;;34.89;nan
23166;BME280;11751;42.700;24.170;2022-08-20T12:27:36;93390.94;;;34.81;nan
23166;BME280;11751;42.700;24.170;2022-08-20T12:30:13;93393.97;;;34.57;nan
23166;BME280;11751;42.700;24.170;2022-08-20T12:32:39;93393.16;;;34.79;nan
23166;BME280;11751;42.700;24.170;2022-08-20T12:35:06;93392.50;;;34.64;nan
23166;BME280;11751;42.700;24.170;2022-08-20T12:37:32;93382.34;;;34.61;nan
23166;BME280;11751;42.700;24.170;2022-08-20T12:39:58;93389.69;;;34.42;nan
23166;BME280;11751;42.700;24.170;2022-08-20T12:42:25;93386.03;;;34.48;nan
23166;BME280;11751;42.700;24.170;2022-08-20T12:44:51;93387.44;;;34.53;nan
23166;BME280;11751;42.700;24.170;2022-08-20T12:47:22;93388.84;;;34.66;nan
23166;BME280;11751;42.700;24.170;2022-08-20T12:49:56;93383.13;;;34.50;nan
23166;BME280;11751;42.700;24.170;2022-08-20T12:52:23;93380.88;;;34.64;nan
23166;BME280;11751;42.700;24.170;2022-08-20T12:54:50;93383.06;;;34.62;nan
23166;BME280;11751;42.700;24.170;2022-08-20T12:59:47;93369.34;;;34.40;nan
23166;BME280;11751;42.700;24.170;2022-08-20T13:02:12;93369.47;;;34.16;nan
23166;BME280;11751;42.700;24.170;2022-08-20T13:04:38;93368.81;;;33.84;nan
23166;BME280;11751;42.700;24.170;2022-08-20T13:07:04;93359.44;;;33.62;nan
23166;BME280;11751;42.700;24.170;2022-08-20T13:09:30;93360.09;;;33.86;nan
23166;BME280;11751;42.700;24.170;2022-08-20T13:11:55;93348.38;;;34.18;nan
23166;BME280;11751;42.700;24.170;2022-08-20T13:14:21;93351.34;;;34.00;nan
23166;BME280;11751;42.700;24.170;2022-08-20T13:16:46;93341.13;;;34.05;nan
23166;BME280;11751;42.700;24.170;2022-08-20T13:19:12;93331.69;;;34.14;nan
23166;BME280;11751;42.700;24.170;2022-08-20T13:21:37;93331.59;;;34.28;nan
23166;BME280;11751;42.700;24.170;2022-08-20T13:24:03;93324.44;;;34.05;nan